sensor_id;sensor_type;location;lat;lon;timestamp;pressure;altitude;pressure_sealevel;temperature;humidity
10014;BME280;45684;48.358;10.746;2023-02-01T00:00:42;96792.13;;;3.28;100.00
10014;BME280;45684;48.358;10.746;2023-02-01T00:03:09;96790.97;;;3.19;100.00
10014;BME280;45684;48.358;10.746;2023-02-01T00:05:39;96797.41;;;3.23;100.00
10014;BME280;45684;48.358;10.746;2023-02-01T00:08:08;96784.25;;;3.16;100.00
10014;BME280;45684;48.358;10.746;2023-02-01T00:10:36;96787.13;;;3.10;100.00
10014;BME280;45684;48.358;10.746;2023-02-01T00:13:05;96786.56;;;3.07;100.00
10014;BME280;45684;48.358;10.746;2023-02-01T00:15:33;96774.81;;;3.03;100.00
10014;BME280;45684;48.358;10.746;2023-02-01T00:18:01;96773.16;;;3.02;100.00
10014;BME280;45684;48.358;10.746;2023-02-01T00:20:29;96766.72;;;2.98;100.00
10014;BME280;45684;48.358;10.746;2023-02-01T00:22:57;96775.50;;;2.94;100.00
10014;BME280;45684;48.358;10.746;2023-02-01T00:25:25;96774.13;;;2.91;100.00
10014;BME280;45684;48.358;10.746;2023-02-01T00:27:53;96765.31;;;2.91;100.00
10014;BME280;45684;48.358;10.746;2023-02-01T00:30:24;96770.91;;;2.89;100.00
10014;BME280;45684;48.358;10.746;2023-02-01T00:32:53;96765.28;;;2.86;100.00
10014;BME280;45684;48.358;10.746;2023-02-01T00:35:20;96764.19;;;2.87;100.00
10014;BME280;45684;48.358;10.746;2023-02-01T00:37:48;96761.53;;;2.87;100.00
10014;BME280;45684;48.358;10.746;2023-02-01T00:40:16;96760.16;;;2.84;100.00
10014;BME280;45684;48.358;10.746;2023-02-01T00:42:44;96757.50;;;2.84;100.00
10014;BME280;45684;48.358;10.746;2023-02-01T00:45:12;96748.94;;;2.82;100.00
10014;BME280;45684;48.358;10.746;2023-02-01T00:47:41;96755.88;;;2.83;100.00
10014;BME280;45684;48.358;10.746;2023-02-01T00:50:10;96752.69;;;2.81;100.00
10014;BME280;45684;48.358;10.746;2023-02-01T00:52:37;96746.28;;;2.82;100.00
10014;BME280;45684;48.358;10.746;2023-02-01T00:55:06;96743.09;;;2.85;100.00
10014;BME280;45684;48.358;10.746;2023-02-01T00:57:34;96740.38;;;2.80;100.00
10014;BME280;45684;48.358;10.746;2023-02-01T01:00:02;96739.88;;;2.83;100.00
10014;BME280;45684;48.358;10.746;2023-02-01T01:02:30;96744.09;;;2.79;100.00
10014;BME280;45684;48.358;10.746;2023-02-01T01:05:00;96743.59;;;2.82;100.00
10014;BME280;45684;48.358;10.746;2023-02-01T01:07:27;96732.91;;;2.82;100.00
10014;BME280;45684;48.358;10.746;2023-02-01T01:09:55;96739.56;;;2.79;100.00
10014;BME280;45684;48.358;10.746;2023-02-01T01:12:23;96737.72;;;2.80;100.00
10014;BME280;45684;48.358;10.746;2023-02-01T01:14:51;96744.34;;;2.77;100.00
10014;BME280;45684;48.358;10.746;2023-02-01T01:17:19;96739.28;;;2.76;100.00
10014;BME280;45684;48.358;10.746;2023-02-01T01:19:47;96741.06;;;2.70;100.00
10014;BME280;45684;48.358;10.746;2023-02-01T01:22:16;96736.34;;;2.77;100.00
10014;BME280;45684;48.358;10.746;2023-02-01T01:24:44;96735.78;;;2.75;100.00
10014;BME280;45684;48.358;10.746;2023-02-01T01:27:12;96740.88;;;2.77;100.00
10014;BME280;45684;48.358;10.746;2023-02-01T01:29:40;96739.28;;;2.76;100.00
10014;BME280;45684;48.358;10.746;2023-02-01T01:32:08;96729.63;;;2.75;100.00
10014;BME280;45684;48.358;10.746;2023-02-01T01:34:36;96726.41;;;2.73;100.00
10014;BME280;45684;48.358;10.746;2023-02-01T01:37:04;96723.47;;;2.74;100.00
10014;BME280;45684;48.358;10.746;2023-02-01T01:39:33;96711.47;;;2.72;100.00
10014;BME280;45684;48.358;10.746;2023-02-01T01:42:01;96709.91;;;2.76;100.00
10014;BME280;45684;48.358;10.746;2023-02-01T01:45:01;96702.13;;;2.74;100.00
10014;BME280;45684;48.358;10.746;2023-02-01T01:47:34;96697.53;;;2.70;100.00
10014;BME280;45684;48.358;10.746;2023-02-01T01:50:05;96698.41;;;2.75;100.00
10014;BME280;45684;48.358;10.746;2023-02-01T01:52:34;96694.63;;;2.71;100.00
10014;BME280;45684;48.358;10.746;2023-02-01T01:55:04;96686.84;;;2.70;100.00
10014;BME280;45684;48.358;10.746;2023-02-01T01:57:35;96691.69;;;2.73;100.00
10014;BME280;45684;48.358;10.746;2023-02-01T02:00:07;96679.97;;;2.74;100.00
10014;BME280;45684;48.358;10.746;2023-02-01T02:02:46;96687.97;;;2.74;100.00
10014;BME280;45684;48.358;10.746;2023-02-01T02:05:15;96686.06;;;2.69;100.00
10014;BME280;45684;48.358;10.746;2023-02-01T02:07:46;96685.81;;;2.71;100.00
10014;BME280;45684;48.358;10.746;2023-02-01T02:10:17;96689.28;;;2.71;100.00
10014;BME280;45684;48.358;10.746;2023-02-01T02:12:47;96693.25;;;2.69;100.00
10014;BME280;45684;48.358;10.746;2023-02-01T02:15:16;96698.34;;;2.70;100.00
10014;BME280;45684;48.358;10.746;2023-02-01T02:17:49;96685.25;;;2.69;100.00
10014;BME280;45684;48.358;10.746;2023-02-01T02:20:34;96690.34;;;2.70;100.00
10014;BME280;45684;48.358;10.746;2023-02-01T02:26:31;96688.69;;;2.64;100.00
10014;BME280;45684;48.358;10.746;2023-02-01T02:29:36;96689.78;;;2.68;100.00
10014;BME280;45684;48.358;10.746;2023-02-01T02:32:26;96685.75;;;2.66;100.00
10014;BME280;45684;48.358;10.746;2023-02-01T02:35:06;96689.47;;;2.65;100.00
10014;BME280;45684;48.358;10.746;2023-02-01T02:37:40;96679.88;;;2.64;100.00
10014;BME280;45684;48.358;10.746;2023-02-01T02:40:15;96672.94;;;2.63;100.00
10014;BME280;45684;48.358;10.746;2023-02-01T02:42:52;96675.63;;;2.68;100.00
10014;BME280;45684;48.358;10.746;2023-02-01T02:45:44;96688.69;;;2.64;100.00
10014;BME280;45684;48.358;10.746;2023-02-01T02:48:36;96687.06;;;2.63;100.00
10014;BME280;45684;48.358;10.746;2023-02-01T02:51:11;96675.63;;;2.68;100.00
10014;BME280;45684;48.358;10.746;2023-02-01T02:54:02;96687.63;;;2.65;100.00
10014;BME280;45684;48.358;10.746;2023-02-01T02:56:50;96690.06;;;2.67;100.00
10014;BME280;45684;48.358;10.746;2023-02-01T02:59:38;96682.59;;;2.69;100.00
10014;BME280;45684;48.358;10.746;2023-02-01T03:02:26;96678.31;;;2.68;100.00
10014;BME280;45684;48.358;10.746;2023-02-01T03:05:13;96673.47;;;2.65;100.00
10014;BME280;45684;48.358;10.746;2023-02-01T03:08:00;96683.34;;;2.64;100.00
10014;BME280;45684;48.358;10.746;2023-02-01T03:10:37;96662.03;;;2.69;100.00
10014;BME280;45684;48.358;10.746;2023-02-01T03:13:12;96673.50;;;2.70;100.00
10014;BME280;45684;48.358;10.746;2023-02-01T03:15:43;96664.47;;;2.71;100.00
10014;BME280;45684;48.358;10.746;2023-02-01T03:18:18;96678.34;;;2.73;100.00
10014;BME280;45684;48.358;10.746;2023-02-01T03:20:48;96669.28;;;2.74;100.00
10014;BME280;45684;48.358;10.746;2023-02-01T03:23:20;96659.66;;;2.73;100.00
10014;BME280;45684;48.358;10.746;2023-02-01T03:25:52;96661.25;;;2.74;100.00
10014;BME280;45684;48.358;10.746;2023-02-01T03:28:23;96662.06;;;2.74;100.00
10014;BME280;45684;48.358;10.746;2023-02-01T03:30:53;96678.63;;;2.71;100.00
10014;BME280;45684;48.358;10.746;2023-02-01T03:33:23;96670.06;;;2.74;100.00
10014;BME280;45684;48.358;10.746;2023-02-01T03:36:01;96660.78;;;2.77;100.00
10014;BME280;45684;48.358;10.746;2023-02-01T03:38:34;96649.03;;;2.78;100.00
10014;BME280;45684;48.358;10.746;2023-02-01T03:41:12;96647.94;;;2.79;100.00
10014;BME280;45684;48.358;10.746;2023-02-01T03:43:49;96643.94;;;2.76;100.00
10014;BME280;45684;48.358;10.746;2023-02-01T03:46:24;96649.81;;;2.78;100.00
10014;BME280;45684;48.358;10.746;2023-02-01T03:48:54;96662.69;;;2.81;100.00
10014;BME280;45684;48.358;10.746;2023-02-01T03:51:24;96664.78;;;2.79;100.00
10014;BME280;45684;48.358;10.746;2023-02-01T03:53:55;96652.25;;;2.80;100.00
10014;BME280;45684;48.358;10.746;2023-02-01T03:56:25;96655.97;;;2.79;100.00
10014;BME280;45684;48.358;10.746;2023-02-01T03:58:55;96654.97;;;2.85;100.00
10014;BME280;45684;48.358;10.746;2023-02-01T04:01:31;96666.94;;;2.83;100.00
10014;BME280;45684;48.358;10.746;2023-02-01T04:04:00;96665.66;;;2.85;100.00
10014;BME280;45684;48.358;10.746;2023-02-01T04:06:28;96664.31;;;2.88;100.00
10014;BME280;45684;48.358;10.746;2023-02-01T04:09:02;96661.16;;;2.91;100.00
10014;BME280;45684;48.358;10.746;2023-02-01T04:11:30;96674.25;;;2.92;100.00
10014;BME280;45684;48.358;10.746;2023-02-01T04:13:58;96661.69;;;2.93;100.00
10014;BME280;45684;48.358;10.746;2023-02-01T04:16:30;96656.34;;;2.93;100.00
10014;BME280;45684;48.358;10.746;2023-02-01T04:18:59;96667.03;;;2.93;100.00
10014;BME280;45684;48.358;10.746;2023-02-01T04:21:27;96680.97;;;2.95;100.00
10014;BME280;45684;48.358;10.746;2023-02-01T04:23:55;96668.13;;;2.97;100.00
10014;BME280;45684;48.358;10.746;2023-02-01T04:26:24;96671.06;;;2.95;100.00
10014;BME280;45684;48.358;10.746;2023-02-01T04:28:52;96664.69;;;3.01;100.00
10014;BME280;45684;48.358;10.746;2023-02-01T04:31:20;96671.91;;;3.01;100.00
10014;BME280;45684;48.358;10.746;2023-02-01T04:33:52;96672.19;;;2.99;100.00
10014;BME280;45684;48.358;10.746;2023-02-01T04:36:20;96669.50;;;2.99;100.00
10014;BME280;45684;48.358;10.746;2023-02-01T04:38:49;96664.41;;;2.98;100.00
10014;BME280;45684;48.358;10.746;2023-02-01T04:41:17;96666.56;;;3.01;100.00
10014;BME280;45684;48.358;10.746;2023-02-01T04:43:47;96669.25;;;3.01;100.00
10014;BME280;45684;48.358;10.746;2023-02-01T04:46:15;96675.94;;;3.03;100.00
10014;BME280;45684;48.358;10.746;2023-02-01T04:48:43;96678.84;;;3.02;100.00
10014;BME280;45684;48.358;10.746;2023-02-01T04:51:12;96677.53;;;2.99;100.00
10014;BME280;45684;48.358;10.746;2023-02-01T04:53:41;96681.22;;;2.98;100.00
10014;BME280;45684;48.358;10.746;2023-02-01T04:56:09;96667.88;;;2.98;100.00
10014;BME280;45684;48.358;10.746;2023-02-01T04:58:37;96662.75;;;2.92;100.00
10014;BME280;45684;48.358;10.746;2023-02-01T05:01:06;96657.97;;;2.94;100.00
10014;BME280;45684;48.358;10.746;2023-02-01T05:03:35;96655.31;;;2.94;100.00
10014;BME280;45684;48.358;10.746;2023-02-01T05:06:03;96637.66;;;2.93;100.00
10014;BME280;45684;48.358;10.746;2023-02-01T05:08:32;96642.50;;;2.96;100.00
10014;BME280;45684;48.358;10.746;2023-02-01T05:11:00;96641.44;;;2.97;100.00
10014;BME280;45684;48.358;10.746;2023-02-01T05:13:29;96638.22;;;2.95;100.00
10014;BME280;45684;48.358;10.746;2023-02-01T05:16:16;96640.09;;;2.94;100.00
10014;BME280;45684;48.358;10.746;2023-02-01T05:18:44;96642.50;;;2.96;100.00
10014;BME280;45684;48.358;10.746;2023-02-01T05:21:12;96639.06;;;3.00;100.00
10014;BME280;45684;48.358;10.746;2023-02-01T05:23:40;96646.56;;;3.03;100.00
10014;BME280;45684;48.358;10.746;2023-02-01T05:26:22;96641.50;;;3.07;100.00
10014;BME280;45684;48.358;10.746;2023-02-01T05:28:50;96639.38;;;3.09;100.00
10014;BME280;45684;48.358;10.746;2023-02-01T05:31:19;96652.75;;;3.09;100.00
10014;BME280;45684;48.358;10.746;2023-02-01T05:33:47;96648.75;;;3.12;100.00
10014;BME280;45684;48.358;10.746;2023-02-01T05:36:15;96653.81;;;3.08;100.00
10014;BME280;45684;48.358;10.746;2023-02-01T05:38:43;96658.91;;;3.10;100.00
10014;BME280;45684;48.358;10.746;2023-02-01T05:41:11;96660.50;;;3.11;100.00
10014;BME280;45684;48.358;10.746;2023-02-01T05:43:39;96656.53;;;3.13;100.00
10014;BME280;45684;48.358;10.746;2023-02-01T05:46:07;96650.91;;;3.15;100.00
10014;BME280;45684;48.358;10.746;2023-02-01T05:48:38;96646.63;;;3.14;100.00
10014;BME280;45684;48.358;10.746;2023-02-01T05:51:07;96623.09;;;3.11;100.00
10014;BME280;45684;48.358;10.746;2023-02-01T05:53:35;96613.78;;;3.13;100.00
10014;BME280;45684;48.358;10.746;2023-02-01T05:56:03;96623.16;;;3.21;100.00
10014;BME280;45684;48.358;10.746;2023-02-01T05:58:31;96646.41;;;3.20;100.00
10014;BME280;45684;48.358;10.746;2023-02-01T06:00:59;96648.53;;;3.18;100.00
10014;BME280;45684;48.358;10.746;2023-02-01T06:03:27;96650.94;;;3.20;100.00
10014;BME280;45684;48.358;10.746;2023-02-01T06:05:57;96636.31;;;3.27;100.00
10014;BME280;45684;48.358;10.746;2023-02-01T06:08:27;96638.19;;;3.27;100.00
10014;BME280;45684;48.358;10.746;2023-02-01T06:10:58;96637.66;;;3.30;100.00
10014;BME280;45684;48.358;10.746;2023-02-01T06:13:26;96628.81;;;3.29;100.00
10014;BME280;45684;48.358;10.746;2023-02-01T06:15:55;96630.19;;;3.32;100.00
10014;BME280;45684;48.358;10.746;2023-02-01T06:18:24;96647.84;;;3.38;100.00
10014;BME280;45684;48.358;10.746;2023-02-01T06:20:53;96645.44;;;3.37;100.00
10014;BME280;45684;48.358;10.746;2023-02-01T06:23:22;96634.50;;;3.38;100.00
10014;BME280;45684;48.358;10.746;2023-02-01T06:25:51;96633.13;;;3.36;100.00
10014;BME280;45684;48.358;10.746;2023-02-01T06:28:19;96630.75;;;3.39;100.00
10014;BME280;45684;48.358;10.746;2023-02-01T06:30:48;96638.78;;;3.39;100.00
10014;BME280;45684;48.358;10.746;2023-02-01T06:33:16;96637.94;;;3.33;100.00
10014;BME280;45684;48.358;10.746;2023-02-01T06:35:44;96636.06;;;3.34;100.00
10014;BME280;45684;48.358;10.746;2023-02-01T06:38:13;96628.31;;;3.32;100.00
10014;BME280;45684;48.358;10.746;2023-02-01T06:40:43;96624.84;;;3.32;100.00
10014;BME280;45684;48.358;10.746;2023-02-01T06:43:11;96643.56;;;3.32;100.00
10014;BME280;45684;48.358;10.746;2023-02-01T06:45:39;96641.16;;;3.36;100.00
10014;BME280;45684;48.358;10.746;2023-02-01T06:48:08;96646.78;;;3.39;100.00
10014;BME280;45684;48.358;10.746;2023-02-01T06:50:36;96650.00;;;3.36;100.00
10014;BME280;45684;48.358;10.746;2023-02-01T06:53:03;96644.13;;;3.39;100.00
10014;BME280;45684;48.358;10.746;2023-02-01T06:55:31;96641.22;;;3.41;100.00
10014;BME280;45684;48.358;10.746;2023-02-01T06:58:01;96653.75;;;3.40;100.00
10014;BME280;45684;48.358;10.746;2023-02-01T07:00:29;96647.09;;;3.43;100.00
10014;BME280;45684;48.358;10.746;2023-02-01T07:02:57;96636.09;;;3.39;100.00
10014;BME280;45684;48.358;10.746;2023-02-01T07:05:26;96627.56;;;3.42;100.00
10014;BME280;45684;48.358;10.746;2023-02-01T07:07:54;96638.53;;;3.41;100.00
10014;BME280;45684;48.358;10.746;2023-02-01T07:10:21;96639.34;;;3.41;100.00
10014;BME280;45684;48.358;10.746;2023-02-01T07:12:50;96640.38;;;3.40;100.00
10014;BME280;45684;48.358;10.746;2023-02-01T07:15:19;96646.75;;;3.34;100.00
10014;BME280;45684;48.358;10.746;2023-02-01T07:17:50;96645.72;;;3.40;100.00
10014;BME280;45684;48.358;10.746;2023-02-01T07:20:18;96642.81;;;3.42;100.00
10014;BME280;45684;48.358;10.746;2023-02-01T07:22:47;96651.34;;;3.44;100.00
10014;BME280;45684;48.358;10.746;2023-02-01T07:25:15;96641.50;;;3.49;100.00
10014;BME280;45684;48.358;10.746;2023-02-01T07:27:44;96646.84;;;3.49;100.00
10014;BME280;45684;48.358;10.746;2023-02-01T07:30:13;96646.59;;;3.51;100.00
10014;BME280;45684;48.358;10.746;2023-02-01T07:32:42;96643.66;;;3.52;100.00
10014;BME280;45684;48.358;10.746;2023-02-01T07:35:10;96646.63;;;3.56;100.00
10014;BME280;45684;48.358;10.746;2023-02-01T07:37:38;96649.06;;;3.63;100.00
10014;BME280;45684;48.358;10.746;2023-02-01T07:40:06;96653.34;;;3.64;100.00
10014;BME280;45684;48.358;10.746;2023-02-01T07:42:34;96658.16;;;3.62;100.00
10014;BME280;45684;48.358;10.746;2023-02-01T07:45:03;96667.00;;;3.67;100.00
10014;BME280;45684;48.358;10.746;2023-02-01T07:47:48;96672.34;;;3.67;100.00
10014;BME280;45684;48.358;10.746;2023-02-01T07:50:16;96664.63;;;3.76;100.00
10014;BME280;45684;48.358;10.746;2023-02-01T07:52:44;96670.00;;;3.76;100.00
10014;BME280;45684;48.358;10.746;2023-02-01T07:55:12;96673.75;;;3.80;100.00
10014;BME280;45684;48.358;10.746;2023-02-01T07:57:40;96680.19;;;3.84;100.00
10014;BME280;45684;48.358;10.746;2023-02-01T08:00:10;96689.56;;;3.87;100.00
10014;BME280;45684;48.358;10.746;2023-02-01T08:02:58;96684.78;;;3.89;100.00
10014;BME280;45684;48.358;10.746;2023-02-01T08:05:26;96685.84;;;3.88;100.00
10014;BME280;45684;48.358;10.746;2023-02-01T08:07:54;96687.72;;;3.87;100.00
10014;BME280;45684;48.358;10.746;2023-02-01T08:10:22;96680.72;;;3.86;100.00
10014;BME280;45684;48.358;10.746;2023-02-01T08:12:51;96694.41;;;3.90;100.00
10014;BME280;45684;48.358;10.746;2023-02-01T08:15:18;96684.53;;;3.95;100.00
10014;BME280;45684;48.358;10.746;2023-02-01T08:17:47;96688.28;;;3.94;100.00
10014;BME280;45684;48.358;10.746;2023-02-01T08:20:17;96698.69;;;3.96;100.00
10014;BME280;45684;48.358;10.746;2023-02-01T08:22:45;96702.47;;;4.00;100.00
10014;BME280;45684;48.358;10.746;2023-02-01T08:25:13;96694.72;;;3.98;100.00
10014;BME280;45684;48.358;10.746;2023-02-01T08:27:42;96703.28;;;4.00;100.00
10014;BME280;45684;48.358;10.746;2023-02-01T08:30:10;96692.34;;;4.02;100.00
10014;BME280;45684;48.358;10.746;2023-02-01T08:32:39;96693.13;;;4.02;100.00
10014;BME280;45684;48.358;10.746;2023-02-01T08:35:07;96677.91;;;4.08;100.00
10014;BME280;45684;48.358;10.746;2023-02-01T08:37:37;96680.59;;;4.13;100.00
10014;BME280;45684;48.358;10.746;2023-02-01T08:40:06;96684.06;;;4.14;100.00
10014;BME280;45684;48.358;10.746;2023-02-01T08:42:35;96690.78;;;4.16;100.00
10014;BME280;45684;48.358;10.746;2023-02-01T08:45:22;96689.97;;;4.16;100.00
10014;BME280;45684;48.358;10.746;2023-02-01T08:47:51;96673.38;;;4.19;100.00
10014;BME280;45684;48.358;10.746;2023-02-01T08:50:20;96677.69;;;4.25;100.00
10014;BME280;45684;48.358;10.746;2023-02-01T08:52:50;96686.25;;;4.27;100.00
10014;BME280;45684;48.358;10.746;2023-02-01T08:55:18;96684.13;;;4.29;100.00
10014;BME280;45684;48.358;10.746;2023-02-01T08:57:47;96685.75;;;4.30;100.00
10014;BME280;45684;48.358;10.746;2023-02-01T09:00:16;96693.50;;;4.37;100.00
10014;BME280;45684;48.358;10.746;2023-02-01T09:02:44;96690.59;;;4.43;100.00
10014;BME280;45684;48.358;10.746;2023-02-01T09:05:12;96700.22;;;4.39;100.00
10014;BME280;45684;48.358;10.746;2023-02-01T09:07:42;96721.09;;;4.37;100.00
10014;BME280;45684;48.358;10.746;2023-02-01T09:10:12;96710.38;;;4.37;100.00
10014;BME280;45684;48.358;10.746;2023-02-01T09:12:42;96723.78;;;4.37;100.00
10014;BME280;45684;48.358;10.746;2023-02-01T09:15:10;96722.97;;;4.42;100.00
10014;BME280;45684;48.358;10.746;2023-02-01T09:17:38;96709.88;;;4.40;100.00
10014;BME280;45684;48.358;10.746;2023-02-01T09:20:09;96713.63;;;4.44;100.00
10014;BME280;45684;48.358;10.746;2023-02-01T09:22:38;96711.47;;;4.46;100.00
10014;BME280;45684;48.358;10.746;2023-02-01T09:25:06;96697.06;;;4.52;100.00
10014;BME280;45684;48.358;10.746;2023-02-01T09:27:36;96702.16;;;4.54;100.00
10014;BME280;45684;48.358;10.746;2023-02-01T09:30:05;96708.31;;;4.59;100.00
10014;BME280;45684;48.358;10.746;2023-02-01T09:32:33;96712.88;;;4.59;100.00
10014;BME280;45684;48.358;10.746;2023-02-01T09:35:01;96715.81;;;4.63;100.00
10014;BME280;45684;48.358;10.746;2023-02-01T09:37:28;96697.59;;;4.65;100.00
10014;BME280;45684;48.358;10.746;2023-02-01T09:39:56;96709.91;;;4.60;100.00
10014;BME280;45684;48.358;10.746;2023-02-01T09:42:43;96721.44;;;4.61;100.00
10014;BME280;45684;48.358;10.746;2023-02-01T09:45:21;96720.09;;;4.64;100.00
10014;BME280;45684;48.358;10.746;2023-02-01T09:47:53;96711.78;;;4.60;100.00
10014;BME280;45684;48.358;10.746;2023-02-01T09:50:28;96710.72;;;4.66;100.00
10014;BME280;45684;48.358;10.746;2023-02-01T09:53:01;96711.00;;;4.70;100.00
10014;BME280;45684;48.358;10.746;2023-02-01T09:55:35;96707.00;;;4.67;100.00
10014;BME280;45684;48.358;10.746;2023-02-01T09:58:09;96719.31;;;4.68;100.00
10014;BME280;45684;48.358;10.746;2023-02-01T10:00:44;96721.19;;;4.63;100.00
10014;BME280;45684;48.358;10.746;2023-02-01T10:03:14;96740.19;;;4.61;100.00
10014;BME280;45684;48.358;10.746;2023-02-01T10:05:53;96735.91;;;4.60;100.00
10014;BME280;45684;48.358;10.746;2023-02-01T10:08:33;96733.50;;;4.58;100.00
10014;BME280;45684;48.358;10.746;2023-02-01T10:11:13;96747.66;;;4.54;100.00
10014;BME280;45684;48.358;10.746;2023-02-01T10:13:54;96728.41;;;4.57;100.00
10014;BME280;45684;48.358;10.746;2023-02-01T10:16:33;96743.41;;;4.58;100.00
10014;BME280;45684;48.358;10.746;2023-02-01T10:19:16;96747.16;;;4.57;100.00
10014;BME280;45684;48.358;10.746;2023-02-01T10:21:53;96751.16;;;4.59;100.00
10014;BME280;45684;48.358;10.746;2023-02-01T10:24:36;96749.00;;;4.56;100.00
10014;BME280;45684;48.358;10.746;2023-02-01T10:27:14;96747.97;;;4.57;100.00
10014;BME280;45684;48.358;10.746;2023-02-01T10:29:47;96753.31;;;4.57;100.00
10014;BME280;45684;48.358;10.746;2023-02-01T10:32:21;96755.44;;;4.60;100.00
10014;BME280;45684;48.358;10.746;2023-02-01T10:34:52;96753.03;;;4.54;100.00
10014;BME280;45684;48.358;10.746;2023-02-01T10:37:27;96740.47;;;4.65;100.00
10014;BME280;45684;48.358;10.746;2023-02-01T10:39:56;96745.00;;;4.59;100.00
10014;BME280;45684;48.358;10.746;2023-02-01T10:42:26;96740.44;;;4.59;100.00
10014;BME280;45684;48.358;10.746;2023-02-01T10:44:57;96729.22;;;4.63;100.00
10014;BME280;45684;48.358;10.746;2023-02-01T10:47:26;96742.06;;;4.60;100.00
10014;BME280;45684;48.358;10.746;2023-02-01T10:50:03;96744.50;;;4.67;100.00
10014;BME280;45684;48.358;10.746;2023-02-01T10:52:39;96732.16;;;4.66;100.00
10014;BME280;45684;48.358;10.746;2023-02-01T10:55:46;96726.28;;;4.64;100.00
10014;BME280;45684;48.358;10.746;2023-02-01T10:58:17;96733.78;;;4.67;100.00
10014;BME280;45684;48.358;10.746;2023-02-01T11:00:48;96733.50;;;4.64;100.00
10014;BME280;45684;48.358;10.746;2023-02-01T11:03:27;96746.09;;;4.63;100.00
10014;BME280;45684;48.358;10.746;2023-02-01T11:05:58;96738.06;;;4.73;100.00
10014;BME280;45684;48.358;10.746;2023-02-01T11:08:26;96752.53;;;4.72;100.00
10014;BME280;45684;48.358;10.746;2023-02-01T11:10:58;96745.31;;;4.68;100.00
10014;BME280;45684;48.358;10.746;2023-02-01T11:13:32;96739.41;;;4.71;100.00
10014;BME280;45684;48.358;10.746;2023-02-01T11:16:05;96752.78;;;4.66;100.00
10014;BME280;45684;48.358;10.746;2023-02-01T11:18:36;96753.59;;;4.66;100.00
10014;BME280;45684;48.358;10.746;2023-02-01T11:21:06;96745.00;;;4.64;100.00
10014;BME280;45684;48.358;10.746;2023-02-01T11:23:41;96747.69;;;4.59;100.00
10014;BME280;45684;48.358;10.746;2023-02-01T11:26:13;96750.66;;;4.63;100.00
10014;BME280;45684;48.358;10.746;2023-02-01T11:28:50;96746.34;;;4.61;100.00
10014;BME280;45684;48.358;10.746;2023-02-01T11:31:20;96752.25;;;4.58;100.00
10014;BME280;45684;48.358;10.746;2023-02-01T11:33:52;96747.41;;;4.60;100.00
10014;BME280;45684;48.358;10.746;2023-02-01T11:36:24;96743.66;;;4.56;100.00
10014;BME280;45684;48.358;10.746;2023-02-01T11:39:08;96744.47;;;4.57;100.00
10014;BME280;45684;48.358;10.746;2023-02-01T11:41:44;96743.13;;;4.59;100.00
10014;BME280;45684;48.358;10.746;2023-02-01T11:44:29;96740.19;;;4.61;100.00
10014;BME280;45684;48.358;10.746;2023-02-01T12:03:02;96724.91;;;4.56;100.00
10014;BME280;45684;48.358;10.746;2023-02-01T12:05:39;96714.19;;;4.56;100.00
10014;BME280;45684;48.358;10.746;2023-02-01T12:08:22;96713.66;;;4.54;100.00
10014;BME280;45684;48.358;10.746;2023-02-01T12:11:06;96705.91;;;4.53;100.00
10014;BME280;45684;48.358;10.746;2023-02-01T12:13:49;96703.47;;;4.56;100.00
10014;BME280;45684;48.358;10.746;2023-02-01T12:16:29;96700.56;;;4.63;100.00
10014;BME280;45684;48.358;10.746;2023-02-01T12:19:17;96699.75;;;4.63;100.00
10014;BME280;45684;48.358;10.746;2023-02-01T12:22:00;96687.44;;;4.67;100.00
10014;BME280;45684;48.358;10.746;2023-02-01T12:30:41;96676.22;;;4.85;100.00
10014;BME280;45684;48.358;10.746;2023-02-01T12:33:18;96661.19;;;4.94;100.00
10014;BME280;45684;48.358;10.746;2023-02-01T12:35:59;96656.91;;;4.93;100.00
10014;BME280;45684;48.358;10.746;2023-02-01T12:38:49;96663.91;;;4.99;100.00
10014;BME280;45684;48.358;10.746;2023-02-01T12:41:39;96653.19;;;5.04;100.00
10014;BME280;45684;48.358;10.746;2023-02-01T12:44:24;96652.09;;;5.05;100.00
10014;BME280;45684;48.358;10.746;2023-02-01T12:46:56;96659.06;;;5.06;100.00
10014;BME280;45684;48.358;10.746;2023-02-01T12:49:33;96648.63;;;5.05;100.00
10014;BME280;45684;48.358;10.746;2023-02-01T12:52:17;96658.53;;;5.09;100.00
10014;BME280;45684;48.358;10.746;2023-02-01T12:54:52;96663.34;;;5.07;100.00
10014;BME280;45684;48.358;10.746;2023-02-01T12:57:25;96659.06;;;5.06;100.00
10014;BME280;45684;48.358;10.746;2023-02-01T12:59:58;96665.78;;;5.04;100.00
10014;BME280;45684;48.358;10.746;2023-02-01T13:02:31;96665.22;;;5.02;100.00
10014;BME280;45684;48.358;10.746;2023-02-01T13:05:15;96660.13;;;5.05;100.00
10014;BME280;45684;48.358;10.746;2023-02-01T13:07:49;96659.88;;;5.07;100.00
10014;BME280;45684;48.358;10.746;2023-02-01T13:10:26;96663.09;;;5.14;100.00
10014;BME280;45684;48.358;10.746;2023-02-01T13:13:04;96652.66;;;5.18;100.00
10014;BME280;45684;48.358;10.746;2023-02-01T13:15:39;96652.88;;;5.16;100.00
10014;BME280;45684;48.358;10.746;2023-02-01T13:18:13;96650.78;;;5.13;100.00
10014;BME280;45684;48.358;10.746;2023-02-01T13:20:47;96647.81;;;5.15;100.00
10014;BME280;45684;48.358;10.746;2023-02-01T13:23:24;96652.09;;;5.16;100.00
10014;BME280;45684;48.358;10.746;2023-02-01T13:25:54;96651.00;;;5.22;100.00
10014;BME280;45684;48.358;10.746;2023-02-01T13:28:26;96656.38;;;5.17;100.00
10014;BME280;45684;48.358;10.746;2023-02-01T13:31:17;96661.72;;;5.17;100.00
10014;BME280;45684;48.358;10.746;2023-02-01T13:34:22;96663.09;;;5.19;100.00
10014;BME280;45684;48.358;10.746;2023-02-01T13:37:04;96674.09;;;5.23;100.00
10014;BME280;45684;48.358;10.746;2023-02-01T13:39:50;96668.19;;;5.10;100.00
10014;BME280;45684;48.358;10.746;2023-02-01T13:42:24;96678.34;;;5.03;100.00